Airport Name : Miami Intl

Other Name : Miami Intl

ICAO : KMIA

IATA : MIA

FAA : MIA

Latitude : 25.79325

Longitude : -80.290556

Country : United States

Local Date and Time : 06 Mar 2021 03:13

 

TAF (Terminal Aerodrome Forecast)

KMIA 060543Z 0606/0712 VRB06KT P6SM SCT040 SCT250 FM061400 11008KT P6SM VCSH SCT040 SCT120 BKN250 FM061800 14009KT P6SM VCTS SCT030CB BKN050 BKN250 PROB30 0618/0623 4SM TSRA BKN020CB FM070000 02005KT P6SM VCSH SCT025 SCT040 BKN100 FM070600 34007KT P6SM FEW040 SCT100 BKN250

 

METAR (METeorological Aerodrome Report)

KMIA 060753Z 36004KT 10SM FEW040 BKN250 20/13 A2994 RMK AO2 SLP139 T02000133 $

KMIA 060653Z 02003KT 10SM FEW025 BKN250 21/13 A2996 RMK AO2 SLP144 T02060128 $

KMIA 060553Z 09005KT 10SM BKN200 21/13 A2995 RMK AO2 SLP141 T02060128 10233 20200 58012 $

KMIA 060453Z 09005KT 10SM BKN200 21/13 A2997 RMK AO2 SLP148 T02060133 402670167 $

To Charter a Jet Click here.